To NAV CANADA Home Page Login to a new session Search on AWWS site Feedback and Comments Disclaimer Vers la page française équivalente Tips FAQ What's new on the site To the Forecasts and Observations / NOTAM section To "File a Flight Plan" website Publications and other links Update of the User's profile FIC Telephone Numbers My Weather Data Folder Route Weather Data Regional Weather Data Local Weather Data To the Forecasts and Observations / NOTAM section
Request Generated 01/21/2017 at 02:12:31 UTC . Weather information available at that time is displayed.

METAR/TAF

MONCTON/GREATER MONCTON INTL/NB    

METAR CYQM 210200Z 04003KT 15SM OVC013 M04/M06 A2993 RMK SC8 SLP141=
METAR CYQM 210100Z 36004KT 15SM -SN OVC013 M04/M06 A2995 RMK SC8
SLP146=
METAR CYQM 210000Z 05004KT 15SM -SN OVC014 M04/M06 A2995 RMK SC8
SLP147=

TAF CYQM 202338Z 2100/2124 02006KT P6SM -SN OVC015 PROB30 2102/2106
5SM BR BKN008
FM210600 VRB03KT P6SM BKN015 BKN110 PROB30 2106/2111 2SM BR
BKN006
FM211100 17005KT 5SM -SN BR SCT006 BKN015 OVC100 PROB30 2111/2115
11/2SM BR BKN004
FM211500 20006KT P6SM BKN020 OVC100
BECMG 2117/2119 24008KT
FM212100 25008KT 5SM -SN OVC015 PROB30 2121/2124 4SM -FZDZ BR
BKN008 OVC015
RMK NXT FCST BY 210600Z=
Your time UTC time
Weather data provided by Environment Canada and NAV CANADA